sensor_id;sensor_type;location;lat;lon;timestamp;pressure;altitude;pressure_sealevel;temperature;humidity
69842;BME280;57138;51.326;-0.068;2023-04-15T00:02:00;98998.41;;;6.33;97.92
69842;BME280;57138;51.326;-0.068;2023-04-15T00:04:28;98987.38;;;6.29;96.65
69842;BME280;57138;51.326;-0.068;2023-04-15T00:06:55;98997.16;;;6.29;96.63
69842;BME280;57138;51.326;-0.068;2023-04-15T00:09:21;98998.19;;;6.28;96.37
69842;BME280;57138;51.326;-0.068;2023-04-15T00:11:46;99005.50;;;6.26;97.72
69842;BME280;57138;51.326;-0.068;2023-04-15T00:14:12;98999.56;;;6.24;96.73
69842;BME280;57138;51.326;-0.068;2023-04-15T00:16:38;99002.41;;;6.22;96.78
69842;BME280;57138;51.326;-0.068;2023-04-15T00:19:03;99005.25;;;6.21;96.96
69842;BME280;57138;51.326;-0.068;2023-04-15T00:21:29;98999.69;;;6.16;97.53
69842;BME280;57138;51.326;-0.068;2023-04-15T00:23:55;99003.34;;;6.15;96.72
69842;BME280;57138;51.326;-0.068;2023-04-15T00:26:20;99006.38;;;6.11;96.54
69842;BME280;57138;51.326;-0.068;2023-04-15T00:28:46;99001.41;;;6.02;96.55
69842;BME280;57138;51.326;-0.068;2023-04-15T00:31:12;99010.97;;;6.03;95.95
69842;BME280;57138;51.326;-0.068;2023-04-15T00:33:37;99016.19;;;5.96;96.02
69842;BME280;57138;51.326;-0.068;2023-04-15T00:36:03;99021.25;;;5.91;96.32
69842;BME280;57138;51.326;-0.068;2023-04-15T00:38:29;99019.97;;;5.87;96.80
69842;BME280;57138;51.326;-0.068;2023-04-15T00:40:55;99014.59;;;5.80;96.48
69842;BME280;57138;51.326;-0.068;2023-04-15T00:43:21;99029.69;;;5.80;96.22
69842;BME280;57138;51.326;-0.068;2023-04-15T00:45:46;99024.59;;;5.78;96.59
69842;BME280;57138;51.326;-0.068;2023-04-15T00:48:12;99028.44;;;5.75;96.52
69842;BME280;57138;51.326;-0.068;2023-04-15T00:50:37;99028.88;;;5.79;97.06
69842;BME280;57138;51.326;-0.068;2023-04-15T00:53:03;99027.25;;;5.78;96.97
69842;BME280;57138;51.326;-0.068;2023-04-15T00:55:28;99015.91;;;5.69;97.30
69842;BME280;57138;51.326;-0.068;2023-04-15T00:57:54;99040.28;;;5.80;96.74
69842;BME280;57138;51.326;-0.068;2023-04-15T01:00:20;99041.31;;;5.79;97.19
69842;BME280;57138;51.326;-0.068;2023-04-15T01:02:45;99037.63;;;5.80;97.01
69842;BME280;57138;51.326;-0.068;2023-04-15T01:05:11;99046.25;;;5.82;97.49
69842;BME280;57138;51.326;-0.068;2023-04-15T01:07:37;99052.81;;;5.86;97.51
69842;BME280;57138;51.326;-0.068;2023-04-15T01:10:03;99060.41;;;5.89;97.76
69842;BME280;57138;51.326;-0.068;2023-04-15T01:12:31;99063.69;;;5.91;98.17
69842;BME280;57138;51.326;-0.068;2023-04-15T01:14:58;99057.13;;;5.87;97.44
69842;BME280;57138;51.326;-0.068;2023-04-15T01:17:24;99058.78;;;5.88;98.44
69842;BME280;57138;51.326;-0.068;2023-04-15T01:19:50;99062.50;;;5.93;98.26
69842;BME280;57138;51.326;-0.068;2023-04-15T01:22:16;99067.78;;;5.93;98.38
69842;BME280;57138;51.326;-0.068;2023-04-15T01:25:16;99060.88;;;5.92;98.46
69842;BME280;57138;51.326;-0.068;2023-04-15T01:27:40;99068.28;;;5.97;98.08
69842;BME280;57138;51.326;-0.068;2023-04-15T01:30:07;99071.56;;;5.99;97.95
69842;BME280;57138;51.326;-0.068;2023-04-15T01:32:33;99074.84;;;6.01;98.13
69842;BME280;57138;51.326;-0.068;2023-04-15T01:34:58;99070.75;;;5.99;97.51
69842;BME280;57138;51.326;-0.068;2023-04-15T01:37:24;99080.34;;;6.00;97.76
69842;BME280;57138;51.326;-0.068;2023-04-15T01:39:50;99087.50;;;5.99;98.37
69842;BME280;57138;51.326;-0.068;2023-04-15T01:42:15;99084.66;;;6.01;97.22
69842;BME280;57138;51.326;-0.068;2023-04-15T01:44:41;99094.47;;;6.00;97.61
69842;BME280;57138;51.326;-0.068;2023-04-15T01:47:06;99101.56;;;6.00;97.77
69842;BME280;57138;51.326;-0.068;2023-04-15T01:49:32;99104.22;;;6.00;98.31
69842;BME280;57138;51.326;-0.068;2023-04-15T01:51:58;99100.84;;;5.91;98.42
69842;BME280;57138;51.326;-0.068;2023-04-15T01:54:23;99093.88;;;5.90;98.13
69842;BME280;57138;51.326;-0.068;2023-04-15T01:56:48;99116.06;;;5.97;97.60
69842;BME280;57138;51.326;-0.068;2023-04-15T01:59:14;99114.03;;;5.99;96.94
69842;BME280;57138;51.326;-0.068;2023-04-15T02:01:39;99111.28;;;5.92;97.95
69842;BME280;57138;51.326;-0.068;2023-04-15T02:04:05;99127.00;;;5.94;97.75
69842;BME280;57138;51.326;-0.068;2023-04-15T02:06:31;99128.63;;;5.95;97.50
69842;BME280;57138;51.326;-0.068;2023-04-15T02:08:56;99137.63;;;5.94;98.08
69842;BME280;57138;51.326;-0.068;2023-04-15T02:11:23;99133.06;;;5.88;97.54
69842;BME280;57138;51.326;-0.068;2023-04-15T02:13:48;99133.41;;;5.85;97.96
69842;BME280;57138;51.326;-0.068;2023-04-15T02:16:18;99127.19;;;5.78;98.43
69842;BME280;57138;51.326;-0.068;2023-04-15T02:18:46;99141.09;;;5.80;98.50
69842;BME280;57138;51.326;-0.068;2023-04-15T02:21:12;99136.53;;;5.73;97.57
69842;BME280;57138;51.326;-0.068;2023-04-15T02:23:38;99150.16;;;5.70;98.17
69842;BME280;57138;51.326;-0.068;2023-04-15T02:26:03;99152.16;;;5.68;97.86
69842;BME280;57138;51.326;-0.068;2023-04-15T02:28:28;99150.72;;;5.66;97.90
69842;BME280;57138;51.326;-0.068;2023-04-15T02:30:54;99155.53;;;5.62;97.89
69842;BME280;57138;51.326;-0.068;2023-04-15T02:33:21;99167.00;;;5.63;98.49
69842;BME280;57138;51.326;-0.068;2023-04-15T02:35:47;99162.41;;;5.56;97.65
69842;BME280;57138;51.326;-0.068;2023-04-15T02:38:13;99170.00;;;5.60;98.03
69842;BME280;57138;51.326;-0.068;2023-04-15T02:40:40;99172.19;;;5.56;98.14
69842;BME280;57138;51.326;-0.068;2023-04-15T02:43:06;99176.31;;;5.58;98.56
69842;BME280;57138;51.326;-0.068;2023-04-15T02:45:32;99177.50;;;5.56;97.91
69842;BME280;57138;51.326;-0.068;2023-04-15T02:47:57;99180.31;;;5.54;97.55
69842;BME280;57138;51.326;-0.068;2023-04-15T02:50:22;99177.56;;;5.48;98.21
69842;BME280;57138;51.326;-0.068;2023-04-15T02:52:49;99190.09;;;5.54;97.96
69842;BME280;57138;51.326;-0.068;2023-04-15T02:55:16;99193.75;;;5.53;98.12
69842;BME280;57138;51.326;-0.068;2023-04-15T02:57:42;99197.44;;;5.52;98.07
69842;BME280;57138;51.326;-0.068;2023-04-15T03:00:08;99201.06;;;5.51;97.27
69842;BME280;57138;51.326;-0.068;2023-04-15T03:02:36;99205.94;;;5.47;98.21
69842;BME280;57138;51.326;-0.068;2023-04-15T03:05:02;99199.78;;;5.47;97.97
69842;BME280;57138;51.326;-0.068;2023-04-15T03:07:28;99207.56;;;5.48;97.87
69842;BME280;57138;51.326;-0.068;2023-04-15T03:09:53;99211.41;;;5.46;98.50
69842;BME280;57138;51.326;-0.068;2023-04-15T03:12:19;99208.09;;;5.44;98.57
69842;BME280;57138;51.326;-0.068;2023-04-15T03:14:44;99206.81;;;5.39;98.02
69842;BME280;57138;51.326;-0.068;2023-04-15T03:17:10;99212.75;;;5.42;98.13
69842;BME280;57138;51.326;-0.068;2023-04-15T03:19:36;99219.72;;;5.43;98.36
69842;BME280;57138;51.326;-0.068;2023-04-15T03:22:01;99230.97;;;5.45;97.77
69842;BME280;57138;51.326;-0.068;2023-04-15T03:24:27;99230.16;;;5.44;98.07
69842;BME280;57138;51.326;-0.068;2023-04-15T03:26:53;99231.94;;;5.44;98.15
69842;BME280;57138;51.326;-0.068;2023-04-15T03:29:19;99229.47;;;5.42;98.22
69842;BME280;57138;51.326;-0.068;2023-04-15T03:31:45;99230.78;;;5.46;98.07
69842;BME280;57138;51.326;-0.068;2023-04-15T03:34:10;99236.91;;;5.47;97.59
69842;BME280;57138;51.326;-0.068;2023-04-15T03:36:36;99238.91;;;5.45;98.27
69842;BME280;57138;51.326;-0.068;2023-04-15T03:39:01;99245.88;;;5.46;98.91
69842;BME280;57138;51.326;-0.068;2023-04-15T03:41:27;99251.81;;;5.48;98.72
69842;BME280;57138;51.326;-0.068;2023-04-15T03:43:53;99271.84;;;5.50;97.86
69842;BME280;57138;51.326;-0.068;2023-04-15T03:46:18;99263.41;;;5.47;98.58
69842;BME280;57138;51.326;-0.068;2023-04-15T03:48:44;99270.00;;;5.51;97.81
69842;BME280;57138;51.326;-0.068;2023-04-15T03:51:09;99276.78;;;5.53;98.24
69842;BME280;57138;51.326;-0.068;2023-04-15T03:53:35;99282.28;;;5.52;97.83
69842;BME280;57138;51.326;-0.068;2023-04-15T03:56:01;99283.91;;;5.53;97.97
69842;BME280;57138;51.326;-0.068;2023-04-15T03:58:26;99279.81;;;5.50;97.50
69842;BME280;57138;51.326;-0.068;2023-04-15T04:00:52;99288.75;;;5.49;97.97
69842;BME280;57138;51.326;-0.068;2023-04-15T04:03:17;99286.28;;;5.48;97.64
69842;BME280;57138;51.326;-0.068;2023-04-15T04:05:42;99297.53;;;5.50;97.81
69842;BME280;57138;51.326;-0.068;2023-04-15T04:08:09;99298.53;;;5.49;97.91
69842;BME280;57138;51.326;-0.068;2023-04-15T04:10:35;99308.31;;;5.48;97.90
69842;BME280;57138;51.326;-0.068;2023-04-15T04:13:00;99304.66;;;5.49;98.25
69842;BME280;57138;51.326;-0.068;2023-04-15T04:15:26;99311.63;;;5.50;98.90
69842;BME280;57138;51.326;-0.068;2023-04-15T04:17:51;99316.06;;;5.50;98.77
69842;BME280;57138;51.326;-0.068;2023-04-15T04:20:17;99306.69;;;5.47;98.52
69842;BME280;57138;51.326;-0.068;2023-04-15T04:22:42;99305.19;;;5.45;97.73
69842;BME280;57138;51.326;-0.068;2023-04-15T04:25:08;99324.88;;;5.50;99.11
69842;BME280;57138;51.326;-0.068;2023-04-15T04:27:34;99327.72;;;5.49;98.23
69842;BME280;57138;51.326;-0.068;2023-04-15T04:30:00;99338.59;;;5.54;98.24
69842;BME280;57138;51.326;-0.068;2023-04-15T04:32:26;99336.47;;;5.49;98.97
69842;BME280;57138;51.326;-0.068;2023-04-15T04:34:52;99332.84;;;5.50;98.04
69842;BME280;57138;51.326;-0.068;2023-04-15T04:37:17;99352.56;;;5.48;98.76
69842;BME280;57138;51.326;-0.068;2023-04-15T04:39:43;99356.88;;;5.49;99.25
69842;BME280;57138;51.326;-0.068;2023-04-15T04:42:08;99350.72;;;5.48;98.69
69842;BME280;57138;51.326;-0.068;2023-04-15T04:44:34;99353.91;;;5.44;98.78
69842;BME280;57138;51.326;-0.068;2023-04-15T04:46:59;99365.19;;;5.46;97.85
69842;BME280;57138;51.326;-0.068;2023-04-15T04:49:24;99373.94;;;5.46;98.77
69842;BME280;57138;51.326;-0.068;2023-04-15T04:51:50;99373.13;;;5.46;99.00
69842;BME280;57138;51.326;-0.068;2023-04-15T04:54:16;99379.78;;;5.42;98.67
69842;BME280;57138;51.326;-0.068;2023-04-15T04:56:41;99387.56;;;5.43;99.56
69842;BME280;57138;51.326;-0.068;2023-04-15T04:59:07;99394.34;;;5.46;99.53
69842;BME280;57138;51.326;-0.068;2023-04-15T05:01:32;99379.78;;;5.42;99.13
69842;BME280;57138;51.326;-0.068;2023-04-15T05:03:58;99394.34;;;5.46;99.06
69842;BME280;57138;51.326;-0.068;2023-04-15T05:06:23;99398.44;;;5.48;99.13
69842;BME280;57138;51.326;-0.068;2023-04-15T05:08:49;99406.56;;;5.47;99.74
69842;BME280;57138;51.326;-0.068;2023-04-15T05:11:14;99416.19;;;5.48;99.94
69842;BME280;57138;51.326;-0.068;2023-04-15T05:13:40;99417.50;;;5.52;99.39
69842;BME280;57138;51.326;-0.068;2023-04-15T05:16:05;99437.69;;;5.53;99.11
69842;BME280;57138;51.326;-0.068;2023-04-15T05:18:31;99431.56;;;5.52;99.72
69842;BME280;57138;51.326;-0.068;2023-04-15T05:20:57;99447.94;;;5.56;99.34
69842;BME280;57138;51.326;-0.068;2023-04-15T05:23:23;99449.97;;;5.54;98.73
69842;BME280;57138;51.326;-0.068;2023-04-15T05:25:48;99454.91;;;5.57;99.56
69842;BME280;57138;51.326;-0.068;2023-04-15T05:28:13;99462.06;;;5.56;100.00
69842;BME280;57138;51.326;-0.068;2023-04-15T05:30:39;99465.53;;;5.57;99.53
69842;BME280;57138;51.326;-0.068;2023-04-15T05:33:05;99481.09;;;5.60;99.15
69842;BME280;57138;51.326;-0.068;2023-04-15T05:35:30;99486.38;;;5.60;99.53
69842;BME280;57138;51.326;-0.068;2023-04-15T05:37:56;99478.78;;;5.57;99.28
69842;BME280;57138;51.326;-0.068;2023-04-15T05:40:21;99483.09;;;5.58;98.90
69842;BME280;57138;51.326;-0.068;2023-04-15T05:42:47;99496.81;;;5.62;99.55
69842;BME280;57138;51.326;-0.068;2023-04-15T05:45:13;99497.69;;;5.54;99.12
69842;BME280;57138;51.326;-0.068;2023-04-15T05:47:38;99512.56;;;5.63;99.37
69842;BME280;57138;51.326;-0.068;2023-04-15T05:50:04;99516.22;;;5.62;99.08
69842;BME280;57138;51.326;-0.068;2023-04-15T05:52:30;99518.69;;;5.64;99.35
69842;BME280;57138;51.326;-0.068;2023-04-15T05:54:56;99515.75;;;5.58;99.74
69842;BME280;57138;51.326;-0.068;2023-04-15T05:57:21;99533.25;;;5.68;99.38
69842;BME280;57138;51.326;-0.068;2023-04-15T05:59:47;99534.41;;;5.65;99.13
69842;BME280;57138;51.326;-0.068;2023-04-15T06:02:13;99545.34;;;5.70;98.91
69842;BME280;57138;51.326;-0.068;2023-04-15T06:04:38;99546.19;;;5.71;99.13
69842;BME280;57138;51.326;-0.068;2023-04-15T06:07:04;99549.66;;;5.71;98.60
69842;BME280;57138;51.326;-0.068;2023-04-15T06:09:29;99560.44;;;5.70;98.59
69842;BME280;57138;51.326;-0.068;2023-04-15T06:11:55;99556.78;;;5.71;98.71
69842;BME280;57138;51.326;-0.068;2023-04-15T06:14:22;99560.94;;;5.73;99.24
69842;BME280;57138;51.326;-0.068;2023-04-15T06:16:47;99566.88;;;5.75;99.10
69842;BME280;57138;51.326;-0.068;2023-04-15T06:19:12;99568.53;;;5.76;98.28
69842;BME280;57138;51.326;-0.068;2023-04-15T06:21:38;99577.16;;;5.79;98.36
69842;BME280;57138;51.326;-0.068;2023-04-15T06:24:04;99585.75;;;5.81;98.95
69842;BME280;57138;51.326;-0.068;2023-04-15T06:26:29;99585.09;;;5.79;99.95
69842;BME280;57138;51.326;-0.068;2023-04-15T06:28:55;99590.06;;;5.82;99.99
69842;BME280;57138;51.326;-0.068;2023-04-15T06:31:21;99592.03;;;5.80;99.18
69842;BME280;57138;51.326;-0.068;2023-04-15T06:33:46;99600.16;;;5.86;99.26
69842;BME280;57138;51.326;-0.068;2023-04-15T06:36:11;99605.94;;;5.90;99.38
69842;BME280;57138;51.326;-0.068;2023-04-15T06:38:37;99612.22;;;5.89;99.23
69842;BME280;57138;51.326;-0.068;2023-04-15T06:41:03;99612.22;;;5.89;98.79
69842;BME280;57138;51.326;-0.068;2023-04-15T06:43:29;99619.84;;;5.92;98.98
69842;BME280;57138;51.326;-0.068;2023-04-15T06:45:55;99618.84;;;5.93;98.54
69842;BME280;57138;51.326;-0.068;2023-04-15T06:48:21;99637.75;;;5.98;98.91
69842;BME280;57138;51.326;-0.068;2023-04-15T06:50:47;99630.13;;;5.95;99.66
69842;BME280;57138;51.326;-0.068;2023-04-15T06:53:13;99646.41;;;6.00;99.40
69842;BME280;57138;51.326;-0.068;2023-04-15T06:55:38;99637.75;;;5.98;98.93
69842;BME280;57138;51.326;-0.068;2023-04-15T06:58:04;99648.03;;;6.01;98.92
69842;BME280;57138;51.326;-0.068;2023-04-15T07:00:29;99652.34;;;6.02;99.32
69842;BME280;57138;51.326;-0.068;2023-04-15T07:02:55;99660.94;;;6.04;98.57
69842;BME280;57138;51.326;-0.068;2023-04-15T07:05:21;99655.81;;;6.03;98.58
69842;BME280;57138;51.326;-0.068;2023-04-15T07:07:46;99668.91;;;6.04;99.61
69842;BME280;57138;51.326;-0.068;2023-04-15T07:10:12;99674.72;;;6.08;99.74
69842;BME280;57138;51.326;-0.068;2023-04-15T07:12:39;99689.00;;;6.07;98.95
69842;BME280;57138;51.326;-0.068;2023-04-15T07:15:04;99693.13;;;6.09;99.36
69842;BME280;57138;51.326;-0.068;2023-04-15T07:17:30;99678.88;;;6.02;99.01
69842;BME280;57138;51.326;-0.068;2023-04-15T07:19:56;99704.41;;;6.11;99.31
69842;BME280;57138;51.326;-0.068;2023-04-15T07:22:21;99705.88;;;6.14;98.96
69842;BME280;57138;51.326;-0.068;2023-04-15T07:24:47;99701.41;;;6.15;98.97
69842;BME280;57138;51.326;-0.068;2023-04-15T07:27:12;99710.00;;;6.17;98.94
69842;BME280;57138;51.326;-0.068;2023-04-15T07:29:37;99706.88;;;6.13;99.01
69842;BME280;57138;51.326;-0.068;2023-04-15T07:32:03;99719.00;;;6.16;98.49
69842;BME280;57138;51.326;-0.068;2023-04-15T07:34:29;99722.63;;;6.15;98.94
69842;BME280;57138;51.326;-0.068;2023-04-15T07:36:54;99721.31;;;6.10;98.43
69842;BME280;57138;51.326;-0.068;2023-04-15T07:39:19;99736.91;;;6.14;98.73
69842;BME280;57138;51.326;-0.068;2023-04-15T07:41:45;99739.72;;;6.12;98.44
69842;BME280;57138;51.326;-0.068;2023-04-15T07:44:10;99743.06;;;6.14;98.93
69842;BME280;57138;51.326;-0.068;2023-04-15T07:46:36;99752.47;;;6.17;98.24
69842;BME280;57138;51.326;-0.068;2023-04-15T07:49:02;99758.81;;;6.16;98.75
69842;BME280;57138;51.326;-0.068;2023-04-15T07:51:28;99764.59;;;6.19;99.04
69842;BME280;57138;51.326;-0.068;2023-04-15T07:53:54;99764.75;;;6.18;98.75
69842;BME280;57138;51.326;-0.068;2023-04-15T07:56:20;99778.50;;;6.21;98.82
69842;BME280;57138;51.326;-0.068;2023-04-15T07:58:46;99777.69;;;6.21;97.80
69842;BME280;57138;51.326;-0.068;2023-04-15T08:01:11;99785.31;;;6.24;97.88
69842;BME280;57138;51.326;-0.068;2023-04-15T08:03:37;99784.00;;;6.20;98.38
69842;BME280;57138;51.326;-0.068;2023-04-15T08:06:03;99791.63;;;6.23;98.42
69842;BME280;57138;51.326;-0.068;2023-04-15T08:08:28;99795.94;;;6.24;98.46
69842;BME280;57138;51.326;-0.068;2023-04-15T08:10:54;99804.56;;;6.26;97.87
69842;BME280;57138;51.326;-0.068;2023-04-15T08:13:19;99812.16;;;6.29;97.83
69842;BME280;57138;51.326;-0.068;2023-04-15T08:15:45;99819.97;;;6.30;98.40
69842;BME280;57138;51.326;-0.068;2023-04-15T08:18:10;99820.81;;;6.31;97.86
69842;BME280;57138;51.326;-0.068;2023-04-15T08:20:36;99811.50;;;6.35;98.56
69842;BME280;57138;51.326;-0.068;2023-04-15T08:23:02;99813.81;;;6.38;99.21
69842;BME280;57138;51.326;-0.068;2023-04-15T08:25:28;99826.56;;;6.43;98.82
69842;BME280;57138;51.326;-0.068;2023-04-15T08:27:55;99829.06;;;6.44;97.87
69842;BME280;57138;51.326;-0.068;2023-04-15T08:30:21;99834.66;;;6.50;98.23
69842;BME280;57138;51.326;-0.068;2023-04-15T08:32:49;99827.22;;;6.53;98.60
69842;BME280;57138;51.326;-0.068;2023-04-15T08:35:15;99842.47;;;6.59;98.03
69842;BME280;57138;51.326;-0.068;2023-04-15T08:37:40;99836.13;;;6.69;98.27
69842;BME280;57138;51.326;-0.068;2023-04-15T08:40:07;99835.78;;;6.72;98.90
69842;BME280;57138;51.326;-0.068;2023-04-15T08:42:40;99842.88;;;6.79;97.77
69842;BME280;57138;51.326;-0.068;2023-04-15T08:45:08;99840.53;;;6.84;98.51
69842;BME280;57138;51.326;-0.068;2023-04-15T08:47:36;99838.16;;;6.90;98.56
69842;BME280;57138;51.326;-0.068;2023-04-15T08:50:03;99855.56;;;7.00;98.97
69842;BME280;57138;51.326;-0.068;2023-04-15T08:52:30;99859.34;;;7.06;98.40
69842;BME280;57138;51.326;-0.068;2023-04-15T08:54:57;99871.59;;;7.15;97.57
69842;BME280;57138;51.326;-0.068;2023-04-15T08:57:25;99871.19;;;7.27;97.93
69842;BME280;57138;51.326;-0.068;2023-04-15T08:59:52;99878.31;;;7.34;97.81
69842;BME280;57138;51.326;-0.068;2023-04-15T09:02:18;99887.38;;;7.40;98.10
69842;BME280;57138;51.326;-0.068;2023-04-15T09:04:44;99882.38;;;7.45;96.51
69842;BME280;57138;51.326;-0.068;2023-04-15T09:07:09;99880.66;;;7.52;97.00
69842;BME280;57138;51.326;-0.068;2023-04-15T09:09:34;99891.78;;;7.56;96.83
69842;BME280;57138;51.326;-0.068;2023-04-15T09:12:01;99893.06;;;7.60;96.43
69842;BME280;57138;51.326;-0.068;2023-04-15T09:14:28;99902.66;;;7.69;97.13
69842;BME280;57138;51.326;-0.068;2023-04-15T09:17:03;99913.44;;;7.76;96.10
69842;BME280;57138;51.326;-0.068;2023-04-15T09:19:29;99920.53;;;7.84;96.20
69842;BME280;57138;51.326;-0.068;2023-04-15T09:21:57;99929.00;;;7.87;96.35
69842;BME280;57138;51.326;-0.068;2023-04-15T09:24:24;99934.13;;;7.89;96.07
69842;BME280;57138;51.326;-0.068;2023-04-15T09:26:53;99944.78;;;7.89;95.74
69842;BME280;57138;51.326;-0.068;2023-04-15T09:29:24;99936.97;;;7.87;96.26
69842;BME280;57138;51.326;-0.068;2023-04-15T09:31:52;99954.72;;;7.95;96.20
69842;BME280;57138;51.326;-0.068;2023-04-15T09:34:18;99954.00;;;8.01;96.00
69842;BME280;57138;51.326;-0.068;2023-04-15T09:39:13;99969.28;;;8.07;95.00
69842;BME280;57138;51.326;-0.068;2023-04-15T09:41:39;99956.84;;;8.00;95.11
69842;BME280;57138;51.326;-0.068;2023-04-15T09:44:05;99975.78;;;8.05;94.39
69842;BME280;57138;51.326;-0.068;2023-04-15T09:46:44;99985.78;;;8.03;95.46
69842;BME280;57138;51.326;-0.068;2023-04-15T09:49:11;99989.25;;;8.03;95.08
69842;BME280;57138;51.326;-0.068;2023-04-15T09:51:37;99994.13;;;8.00;95.02
69842;BME280;57138;51.326;-0.068;2023-04-15T09:54:03;99992.28;;;8.00;95.25
69842;BME280;57138;51.326;-0.068;2023-04-15T09:56:36;99993.09;;;8.01;95.04
69842;BME280;57138;51.326;-0.068;2023-04-15T09:59:06;99999.44;;;8.00;93.79
69842;BME280;57138;51.326;-0.068;2023-04-15T10:01:31;100005.72;;;8.07;94.98
69842;BME280;57138;51.326;-0.068;2023-04-15T10:03:57;100015.63;;;8.21;96.02
69842;BME280;57138;51.326;-0.068;2023-04-15T10:06:25;100019.78;;;8.39;95.18
69842;BME280;57138;51.326;-0.068;2023-04-15T10:08:51;100022.81;;;8.59;94.36
69842;BME280;57138;51.326;-0.068;2023-04-15T10:11:21;100021.28;;;8.79;95.13
69842;BME280;57138;51.326;-0.068;2023-04-15T10:13:49;100032.25;;;8.99;93.11
69842;BME280;57138;51.326;-0.068;2023-04-15T10:16:17;100032.25;;;9.14;93.13
69842;BME280;57138;51.326;-0.068;2023-04-15T10:18:45;100032.19;;;9.23;91.86
69842;BME280;57138;51.326;-0.068;2023-04-15T10:21:11;100041.00;;;9.23;90.66
69842;BME280;57138;51.326;-0.068;2023-04-15T10:23:38;100033.00;;;9.23;90.23
69842;BME280;57138;51.326;-0.068;2023-04-15T10:26:04;100036.22;;;9.18;90.31
69842;BME280;57138;51.326;-0.068;2023-04-15T10:28:31;100046.44;;;9.15;91.07
69842;BME280;57138;51.326;-0.068;2023-04-15T10:30:57;100050.84;;;9.08;91.66
69842;BME280;57138;51.326;-0.068;2023-04-15T10:33:24;100050.56;;;9.03;91.21
69842;BME280;57138;51.326;-0.068;2023-04-15T10:35:51;100051.28;;;8.96;90.62
69842;BME280;57138;51.326;-0.068;2023-04-15T10:38:40;100075.47;;;8.95;90.03
69842;BME280;57138;51.326;-0.068;2023-04-15T10:46:42;100078.78;;;8.82;90.39
69842;BME280;57138;51.326;-0.068;2023-04-15T10:49:09;100092.38;;;8.87;91.13
69842;BME280;57138;51.326;-0.068;2023-04-15T10:51:42;100089.06;;;8.85;90.39
69842;BME280;57138;51.326;-0.068;2023-04-15T10:54:30;100091.75;;;8.85;89.57
69842;BME280;57138;51.326;-0.068;2023-04-15T10:59:28;100081.13;;;8.77;89.37
69842;BME280;57138;51.326;-0.068;2023-04-15T11:01:59;100102.94;;;8.80;90.52
69842;BME280;57138;51.326;-0.068;2023-04-15T11:12:39;100109.25;;;9.03;90.93
69842;BME280;57138;51.326;-0.068;2023-04-15T11:15:24;100107.97;;;9.13;88.31
69842;BME280;57138;51.326;-0.068;2023-04-15T11:17:51;100112.22;;;9.23;88.81
69842;BME280;57138;51.326;-0.068;2023-04-15T11:20:17;100102.56;;;9.37;90.11
69842;BME280;57138;51.326;-0.068;2023-04-15T11:22:50;100104.31;;;9.59;89.14
69842;BME280;57138;51.326;-0.068;2023-04-15T11:27:47;100107.09;;;10.02;86.66
69842;BME280;57138;51.326;-0.068;2023-04-15T11:30:18;100119.22;;;10.20;85.68
69842;BME280;57138;51.326;-0.068;2023-04-15T11:32:52;100120.13;;;10.27;86.57
69842;BME280;57138;51.326;-0.068;2023-04-15T11:35:18;100127.59;;;10.32;88.02
69842;BME280;57138;51.326;-0.068;2023-04-15T11:37:44;100128.88;;;10.36;86.85
69842;BME280;57138;51.326;-0.068;2023-04-15T11:40:11;100126.00;;;10.37;86.57
69842;BME280;57138;51.326;-0.068;2023-04-15T11:42:37;100138.00;;;10.41;86.18
69842;BME280;57138;51.326;-0.068;2023-04-15T11:45:11;100133.56;;;10.49;85.61
69842;BME280;57138;51.326;-0.068;2023-04-15T11:47:37;100137.47;;;10.53;85.27
69842;BME280;57138;51.326;-0.068;2023-04-15T11:50:14;100142.25;;;10.57;85.55
69842;BME280;57138;51.326;-0.068;2023-04-15T11:53:03;100137.69;;;10.73;82.87
69842;BME280;57138;51.326;-0.068;2023-04-15T11:55:27;100137.81;;;10.86;82.20
69842;BME280;57138;51.326;-0.068;2023-04-15T11:58:24;100136.69;;;11.02;81.70
69842;BME280;57138;51.326;-0.068;2023-04-15T12:00:54;100138.59;;;11.08;81.31
69842;BME280;57138;51.326;-0.068;2023-04-15T12:03:27;100134.50;;;11.12;81.41
69842;BME280;57138;51.326;-0.068;2023-04-15T12:14:08;100151.59;;;11.40;81.45
69842;BME280;57138;51.326;-0.068;2023-04-15T12:16:40;100156.59;;;11.49;80.27
69842;BME280;57138;51.326;-0.068;2023-04-15T12:19:10;100154.97;;;11.48;80.56
69842;BME280;57138;51.326;-0.068;2023-04-15T12:21:37;100164.00;;;11.47;79.38
69842;BME280;57138;51.326;-0.068;2023-04-15T12:24:05;100174.72;;;11.47;79.86
69842;BME280;57138;51.326;-0.068;2023-04-15T12:26:36;100181.97;;;11.54;79.21
69842;BME280;57138;51.326;-0.068;2023-04-15T12:29:07;100181.44;;;11.72;78.52
69842;BME280;57138;51.326;-0.068;2023-04-15T12:31:34;100179.56;;;11.94;78.11
69842;BME280;57138;51.326;-0.068;2023-04-15T12:34:05;100173.03;;;12.10;77.99
69842;BME280;57138;51.326;-0.068;2023-04-15T12:36:31;100176.34;;;12.12;78.61
69842;BME280;57138;51.326;-0.068;2023-04-15T12:39:04;100189.56;;;12.20;76.17
69842;BME280;57138;51.326;-0.068;2023-04-15T12:41:30;100185.88;;;12.28;77.42
69842;BME280;57138;51.326;-0.068;2023-04-15T12:43:56;100197.88;;;12.38;74.08
69842;BME280;57138;51.326;-0.068;2023-04-15T12:46:22;100180.16;;;12.37;75.64
69842;BME280;57138;51.326;-0.068;2023-04-15T12:48:47;100191.34;;;12.54;75.76
69842;BME280;57138;51.326;-0.068;2023-04-15T12:51:13;100181.25;;;12.70;76.23
69842;BME280;57138;51.326;-0.068;2023-04-15T12:53:38;100195.09;;;12.80;74.98
69842;BME280;57138;51.326;-0.068;2023-04-15T12:56:04;100206.66;;;12.74;72.77
69842;BME280;57138;51.326;-0.068;2023-04-15T12:58:31;100190.94;;;12.57;71.33
69842;BME280;57138;51.326;-0.068;2023-04-15T13:00:56;100202.47;;;12.51;71.68
69842;BME280;57138;51.326;-0.068;2023-04-15T13:03:22;100198.13;;;12.57;73.81
69842;BME280;57138;51.326;-0.068;2023-04-15T13:05:47;100198.38;;;12.69;69.83
69842;BME280;57138;51.326;-0.068;2023-04-15T13:08:12;100194.50;;;12.78;73.65
69842;BME280;57138;51.326;-0.068;2023-04-15T13:10:38;100217.44;;;13.01;70.94
69842;BME280;57138;51.326;-0.068;2023-04-15T13:13:04;100212.09;;;13.14;71.17
69842;BME280;57138;51.326;-0.068;2023-04-15T13:15:29;100203.59;;;13.24;70.16
69842;BME280;57138;51.326;-0.068;2023-04-15T13:17:55;100217.69;;;13.39;69.09
69842;BME280;57138;51.326;-0.068;2023-04-15T13:20:21;100221.84;;;13.42;69.24
69842;BME280;57138;51.326;-0.068;2023-04-15T13:22:46;100216.41;;;13.28;70.02
69842;BME280;57138;51.326;-0.068;2023-04-15T13:25:12;100220.34;;;13.19;68.61